Largo, Maryland
Current Conditions -  °F | °C
As of 9:55 AM on Friday 19 Dec 2014 (Local Time) from KADW Reporting Station
Overcast Overcast  
Wind Chill: 28°   Ceiling: 3100
Heat Index: 36°   Visibility: 10mi
Dew Point: 23°   Wind: 12mph
Humidity: 61%   Direction: 330°NNW
Pressure: 30.16"   Gusts: 26mph
Location:  38.8158°N, 76.75°W
Report Text: KADW 191455Z 33010G23KT 10SM OVC031 02/M05 A3016 RMK AO2A SLP219 T00201049 53013
Loading
Personal Weather Stations






























Interactive Weather Map New forecast layout! Learn more

10-Day Weather Forecast

Advertisements
Track Severe Weather on mobile